sensor_id;sensor_type;location;lat;lon;timestamp;P1;durP1;ratioP1;P2;durP2;ratioP2
16179;SDS011;8196;49.428;10.906;2023-03-01T00:01:24;16.25;;;12.15;;
16179;SDS011;8196;49.428;10.906;2023-03-01T00:03:52;15.18;;;11.55;;
16179;SDS011;8196;49.428;10.906;2023-03-01T00:06:19;16.08;;;11.48;;
16179;SDS011;8196;49.428;10.906;2023-03-01T00:08:47;15.63;;;11.43;;
16179;SDS011;8196;49.428;10.906;2023-03-01T00:13:41;16.45;;;11.90;;
16179;SDS011;8196;49.428;10.906;2023-03-01T00:16:11;17.02;;;12.27;;
16179;SDS011;8196;49.428;10.906;2023-03-01T00:18:39;15.73;;;12.13;;
16179;SDS011;8196;49.428;10.906;2023-03-01T00:21:06;15.63;;;11.63;;
16179;SDS011;8196;49.428;10.906;2023-03-01T00:23:34;15.35;;;11.40;;
16179;SDS011;8196;49.428;10.906;2023-03-01T00:26:01;16.00;;;11.60;;
16179;SDS011;8196;49.428;10.906;2023-03-01T00:28:28;15.48;;;11.43;;
16179;SDS011;8196;49.428;10.906;2023-03-01T00:30:55;16.08;;;11.63;;
16179;SDS011;8196;49.428;10.906;2023-03-01T00:33:22;15.52;;;11.27;;
16179;SDS011;8196;49.428;10.906;2023-03-01T00:35:49;15.07;;;11.77;;
16179;SDS011;8196;49.428;10.906;2023-03-01T00:38:16;15.83;;;12.00;;
16179;SDS011;8196;49.428;10.906;2023-03-01T00:40:44;14.85;;;11.52;;
16179;SDS011;8196;49.428;10.906;2023-03-01T00:43:11;16.90;;;12.38;;
16179;SDS011;8196;49.428;10.906;2023-03-01T00:45:38;14.77;;;11.32;;
16179;SDS011;8196;49.428;10.906;2023-03-01T00:48:05;16.83;;;11.95;;
16179;SDS011;8196;49.428;10.906;2023-03-01T00:50:32;15.75;;;12.10;;
16179;SDS011;8196;49.428;10.906;2023-03-01T00:52:59;16.92;;;11.80;;
16179;SDS011;8196;49.428;10.906;2023-03-01T00:55:26;14.93;;;11.33;;
16179;SDS011;8196;49.428;10.906;2023-03-01T00:57:54;16.80;;;12.10;;
16179;SDS011;8196;49.428;10.906;2023-03-01T01:00:21;15.40;;;11.10;;
16179;SDS011;8196;49.428;10.906;2023-03-01T01:02:48;14.80;;;11.27;;
16179;SDS011;8196;49.428;10.906;2023-03-01T01:05:15;15.37;;;11.50;;
16179;SDS011;8196;49.428;10.906;2023-03-01T01:07:47;16.97;;;12.50;;
16179;SDS011;8196;49.428;10.906;2023-03-01T01:10:14;14.95;;;11.02;;
16179;SDS011;8196;49.428;10.906;2023-03-01T01:12:44;14.00;;;10.95;;
16179;SDS011;8196;49.428;10.906;2023-03-01T01:15:11;15.55;;;11.82;;
16179;SDS011;8196;49.428;10.906;2023-03-01T01:17:40;16.42;;;11.13;;
16179;SDS011;8196;49.428;10.906;2023-03-01T01:20:08;17.70;;;12.60;;
16179;SDS011;8196;49.428;10.906;2023-03-01T01:22:35;15.18;;;11.98;;
16179;SDS011;8196;49.428;10.906;2023-03-01T01:25:02;15.82;;;12.13;;
16179;SDS011;8196;49.428;10.906;2023-03-01T01:27:29;14.27;;;11.45;;
16179;SDS011;8196;49.428;10.906;2023-03-01T01:29:56;15.30;;;11.07;;
16179;SDS011;8196;49.428;10.906;2023-03-01T01:32:23;14.82;;;11.27;;
16179;SDS011;8196;49.428;10.906;2023-03-01T01:34:52;14.68;;;10.77;;
16179;SDS011;8196;49.428;10.906;2023-03-01T01:37:21;16.90;;;11.90;;
16179;SDS011;8196;49.428;10.906;2023-03-01T01:39:48;16.20;;;11.57;;
16179;SDS011;8196;49.428;10.906;2023-03-01T01:42:16;16.15;;;11.93;;
16179;SDS011;8196;49.428;10.906;2023-03-01T01:44:45;16.55;;;11.50;;
16179;SDS011;8196;49.428;10.906;2023-03-01T01:47:14;14.52;;;11.10;;
16179;SDS011;8196;49.428;10.906;2023-03-01T01:52:14;15.48;;;11.75;;
16179;SDS011;8196;49.428;10.906;2023-03-01T01:54:45;15.52;;;11.63;;
16179;SDS011;8196;49.428;10.906;2023-03-01T01:57:17;16.95;;;12.32;;
16179;SDS011;8196;49.428;10.906;2023-03-01T01:59:50;17.75;;;12.75;;
16179;SDS011;8196;49.428;10.906;2023-03-01T02:02:19;16.17;;;11.90;;
16179;SDS011;8196;49.428;10.906;2023-03-01T02:04:47;15.32;;;11.70;;
16179;SDS011;8196;49.428;10.906;2023-03-01T02:07:16;16.40;;;11.60;;
16179;SDS011;8196;49.428;10.906;2023-03-01T02:09:46;19.73;;;12.68;;
16179;SDS011;8196;49.428;10.906;2023-03-01T02:12:15;17.83;;;12.65;;
16179;SDS011;8196;49.428;10.906;2023-03-01T02:14:43;15.48;;;11.38;;
16179;SDS011;8196;49.428;10.906;2023-03-01T02:17:11;17.40;;;12.20;;
16179;SDS011;8196;49.428;10.906;2023-03-01T02:24:47;15.73;;;12.27;;
16179;SDS011;8196;49.428;10.906;2023-03-01T02:27:16;16.90;;;12.00;;
16179;SDS011;8196;49.428;10.906;2023-03-01T02:29:44;16.77;;;11.82;;
16179;SDS011;8196;49.428;10.906;2023-03-01T02:32:11;14.82;;;11.40;;
16179;SDS011;8196;49.428;10.906;2023-03-01T02:34:39;18.77;;;13.00;;
16179;SDS011;8196;49.428;10.906;2023-03-01T02:37:10;17.25;;;12.30;;
16179;SDS011;8196;49.428;10.906;2023-03-01T02:39:40;14.63;;;11.50;;
16179;SDS011;8196;49.428;10.906;2023-03-01T02:42:11;16.00;;;11.90;;
16179;SDS011;8196;49.428;10.906;2023-03-01T02:44:39;16.65;;;12.15;;
16179;SDS011;8196;49.428;10.906;2023-03-01T02:47:06;16.20;;;11.87;;
16179;SDS011;8196;49.428;10.906;2023-03-01T02:49:34;17.23;;;11.90;;
16179;SDS011;8196;49.428;10.906;2023-03-01T02:52:21;16.08;;;11.63;;
16179;SDS011;8196;49.428;10.906;2023-03-01T02:54:58;16.65;;;10.80;;
16179;SDS011;8196;49.428;10.906;2023-03-01T02:57:28;14.70;;;11.32;;
16179;SDS011;8196;49.428;10.906;2023-03-01T02:59:56;15.63;;;10.98;;
16179;SDS011;8196;49.428;10.906;2023-03-01T03:02:25;16.80;;;10.98;;
16179;SDS011;8196;49.428;10.906;2023-03-01T03:05:09;16.83;;;11.73;;
16179;SDS011;8196;49.428;10.906;2023-03-01T03:07:39;15.45;;;11.52;;
16179;SDS011;8196;49.428;10.906;2023-03-01T03:10:09;18.42;;;11.30;;
16179;SDS011;8196;49.428;10.906;2023-03-01T03:12:39;14.60;;;11.05;;
16179;SDS011;8196;49.428;10.906;2023-03-01T03:15:06;15.70;;;11.13;;
16179;SDS011;8196;49.428;10.906;2023-03-01T03:17:35;15.25;;;11.30;;
16179;SDS011;8196;49.428;10.906;2023-03-01T03:20:04;15.00;;;11.70;;
16179;SDS011;8196;49.428;10.906;2023-03-01T03:22:32;14.35;;;11.05;;
16179;SDS011;8196;49.428;10.906;2023-03-01T03:25:00;16.00;;;10.90;;
16179;SDS011;8196;49.428;10.906;2023-03-01T03:27:28;15.55;;;11.13;;
16179;SDS011;8196;49.428;10.906;2023-03-01T03:29:55;16.93;;;11.30;;
16179;SDS011;8196;49.428;10.906;2023-03-01T03:32:22;15.07;;;11.15;;
16179;SDS011;8196;49.428;10.906;2023-03-01T03:34:49;17.10;;;11.98;;
16179;SDS011;8196;49.428;10.906;2023-03-01T03:37:16;15.23;;;11.75;;
16179;SDS011;8196;49.428;10.906;2023-03-01T03:40:03;19.13;;;12.90;;
16179;SDS011;8196;49.428;10.906;2023-03-01T03:42:41;16.17;;;11.43;;
16179;SDS011;8196;49.428;10.906;2023-03-01T03:45:08;16.65;;;11.65;;
16179;SDS011;8196;49.428;10.906;2023-03-01T03:47:35;15.27;;;11.38;;
16179;SDS011;8196;49.428;10.906;2023-03-01T03:50:02;20.25;;;13.20;;
16179;SDS011;8196;49.428;10.906;2023-03-01T03:52:29;17.77;;;11.82;;
16179;SDS011;8196;49.428;10.906;2023-03-01T03:54:56;18.58;;;12.07;;
16179;SDS011;8196;49.428;10.906;2023-03-01T03:57:24;16.58;;;12.18;;
16179;SDS011;8196;49.428;10.906;2023-03-01T03:59:51;17.67;;;12.37;;
16179;SDS011;8196;49.428;10.906;2023-03-01T04:02:18;17.17;;;11.95;;
16179;SDS011;8196;49.428;10.906;2023-03-01T04:04:48;16.58;;;11.30;;
16179;SDS011;8196;49.428;10.906;2023-03-01T04:07:16;17.00;;;11.93;;
16179;SDS011;8196;49.428;10.906;2023-03-01T04:09:43;16.65;;;12.10;;
16179;SDS011;8196;49.428;10.906;2023-03-01T04:12:10;17.67;;;12.57;;
16179;SDS011;8196;49.428;10.906;2023-03-01T04:14:37;17.58;;;12.65;;
16179;SDS011;8196;49.428;10.906;2023-03-01T04:17:04;17.48;;;12.77;;
16179;SDS011;8196;49.428;10.906;2023-03-01T04:19:32;19.40;;;12.20;;
16179;SDS011;8196;49.428;10.906;2023-03-01T04:22:02;19.48;;;12.90;;
16179;SDS011;8196;49.428;10.906;2023-03-01T04:24:35;20.17;;;13.52;;
16179;SDS011;8196;49.428;10.906;2023-03-01T04:27:02;17.00;;;12.13;;
16179;SDS011;8196;49.428;10.906;2023-03-01T04:29:29;18.80;;;12.63;;
16179;SDS011;8196;49.428;10.906;2023-03-01T04:31:56;20.70;;;14.43;;
16179;SDS011;8196;49.428;10.906;2023-03-01T04:34:25;18.65;;;12.82;;
16179;SDS011;8196;49.428;10.906;2023-03-01T04:36:53;16.65;;;12.30;;
16179;SDS011;8196;49.428;10.906;2023-03-01T04:39:20;18.83;;;12.77;;
16179;SDS011;8196;49.428;10.906;2023-03-01T04:41:48;14.90;;;11.50;;
16179;SDS011;8196;49.428;10.906;2023-03-01T04:44:15;17.38;;;12.18;;
16179;SDS011;8196;49.428;10.906;2023-03-01T04:46:42;16.15;;;11.85;;
16179;SDS011;8196;49.428;10.906;2023-03-01T04:49:09;17.90;;;12.77;;
16179;SDS011;8196;49.428;10.906;2023-03-01T04:51:36;17.95;;;12.63;;
16179;SDS011;8196;49.428;10.906;2023-03-01T04:54:03;17.80;;;11.88;;
16179;SDS011;8196;49.428;10.906;2023-03-01T04:56:34;20.52;;;13.23;;
16179;SDS011;8196;49.428;10.906;2023-03-01T04:59:02;19.00;;;13.55;;
16179;SDS011;8196;49.428;10.906;2023-03-01T05:01:31;19.42;;;13.93;;
16179;SDS011;8196;49.428;10.906;2023-03-01T05:03:59;20.67;;;14.02;;
16179;SDS011;8196;49.428;10.906;2023-03-01T05:06:29;20.08;;;13.18;;
16179;SDS011;8196;49.428;10.906;2023-03-01T05:08:56;20.75;;;15.10;;
16179;SDS011;8196;49.428;10.906;2023-03-01T05:11:24;18.95;;;13.85;;
16179;SDS011;8196;49.428;10.906;2023-03-01T05:13:51;18.67;;;13.65;;
16179;SDS011;8196;49.428;10.906;2023-03-01T05:16:21;20.77;;;15.02;;
16179;SDS011;8196;49.428;10.906;2023-03-01T05:18:48;25.85;;;16.60;;
16179;SDS011;8196;49.428;10.906;2023-03-01T05:21:16;25.83;;;18.08;;
16179;SDS011;8196;49.428;10.906;2023-03-01T05:23:44;22.38;;;15.85;;
16179;SDS011;8196;49.428;10.906;2023-03-01T05:26:11;20.17;;;14.83;;
16179;SDS011;8196;49.428;10.906;2023-03-01T05:28:53;21.55;;;15.05;;
16179;SDS011;8196;49.428;10.906;2023-03-01T05:31:24;18.80;;;13.80;;
16179;SDS011;8196;49.428;10.906;2023-03-01T05:33:52;19.58;;;13.82;;
16179;SDS011;8196;49.428;10.906;2023-03-01T05:36:19;20.40;;;14.73;;
16179;SDS011;8196;49.428;10.906;2023-03-01T05:38:46;21.33;;;15.10;;
16179;SDS011;8196;49.428;10.906;2023-03-01T05:41:13;20.27;;;14.47;;
16179;SDS011;8196;49.428;10.906;2023-03-01T05:43:41;20.45;;;14.88;;
16179;SDS011;8196;49.428;10.906;2023-03-01T05:46:11;19.58;;;14.13;;
16179;SDS011;8196;49.428;10.906;2023-03-01T05:48:39;18.92;;;13.40;;
16179;SDS011;8196;49.428;10.906;2023-03-01T05:51:06;21.33;;;14.77;;
16179;SDS011;8196;49.428;10.906;2023-03-01T05:53:33;19.13;;;14.00;;
16179;SDS011;8196;49.428;10.906;2023-03-01T05:56:02;18.40;;;13.23;;
16179;SDS011;8196;49.428;10.906;2023-03-01T05:58:30;20.77;;;14.43;;
16179;SDS011;8196;49.428;10.906;2023-03-01T06:00:57;20.75;;;13.52;;
16179;SDS011;8196;49.428;10.906;2023-03-01T06:03:24;16.33;;;12.20;;
16179;SDS011;8196;49.428;10.906;2023-03-01T06:05:55;17.33;;;13.27;;
16179;SDS011;8196;49.428;10.906;2023-03-01T06:08:22;17.63;;;12.75;;
16179;SDS011;8196;49.428;10.906;2023-03-01T06:10:50;20.38;;;13.80;;
16179;SDS011;8196;49.428;10.906;2023-03-01T06:13:17;19.38;;;13.68;;
16179;SDS011;8196;49.428;10.906;2023-03-01T06:15:44;18.73;;;13.32;;
16179;SDS011;8196;49.428;10.906;2023-03-01T06:18:11;17.15;;;13.25;;
16179;SDS011;8196;49.428;10.906;2023-03-01T06:20:38;19.10;;;12.95;;
16179;SDS011;8196;49.428;10.906;2023-03-01T06:23:05;20.45;;;13.90;;
16179;SDS011;8196;49.428;10.906;2023-03-01T06:25:34;19.48;;;14.43;;
16179;SDS011;8196;49.428;10.906;2023-03-01T06:28:02;19.13;;;14.43;;
16179;SDS011;8196;49.428;10.906;2023-03-01T06:30:30;17.20;;;13.43;;
16179;SDS011;8196;49.428;10.906;2023-03-01T06:32:58;19.80;;;13.15;;
16179;SDS011;8196;49.428;10.906;2023-03-01T06:35:29;18.23;;;13.60;;
16179;SDS011;8196;49.428;10.906;2023-03-01T06:37:57;19.67;;;13.38;;
16179;SDS011;8196;49.428;10.906;2023-03-01T06:40:25;16.07;;;12.57;;
16179;SDS011;8196;49.428;10.906;2023-03-01T06:42:52;23.98;;;15.52;;
16179;SDS011;8196;49.428;10.906;2023-03-01T06:45:20;19.33;;;14.02;;
16179;SDS011;8196;49.428;10.906;2023-03-01T06:47:47;18.13;;;13.20;;
16179;SDS011;8196;49.428;10.906;2023-03-01T06:50:15;19.63;;;13.70;;
16179;SDS011;8196;49.428;10.906;2023-03-01T06:52:43;18.98;;;14.23;;
16179;SDS011;8196;49.428;10.906;2023-03-01T06:55:11;18.58;;;13.20;;
16179;SDS011;8196;49.428;10.906;2023-03-01T06:57:38;18.38;;;14.38;;
16179;SDS011;8196;49.428;10.906;2023-03-01T07:00:05;19.08;;;13.88;;
16179;SDS011;8196;49.428;10.906;2023-03-01T07:02:34;23.60;;;15.00;;
16179;SDS011;8196;49.428;10.906;2023-03-01T07:05:01;18.13;;;14.23;;
16179;SDS011;8196;49.428;10.906;2023-03-01T07:07:28;19.98;;;14.07;;
16179;SDS011;8196;49.428;10.906;2023-03-01T07:09:55;18.50;;;13.82;;
16179;SDS011;8196;49.428;10.906;2023-03-01T07:12:22;22.98;;;14.68;;
16179;SDS011;8196;49.428;10.906;2023-03-01T07:14:49;22.02;;;14.93;;
16179;SDS011;8196;49.428;10.906;2023-03-01T07:17:30;21.23;;;14.43;;
16179;SDS011;8196;49.428;10.906;2023-03-01T07:19:57;20.02;;;15.00;;
16179;SDS011;8196;49.428;10.906;2023-03-01T07:22:24;19.20;;;14.60;;
16179;SDS011;8196;49.428;10.906;2023-03-01T07:24:52;19.57;;;14.80;;
16179;SDS011;8196;49.428;10.906;2023-03-01T07:27:19;21.17;;;14.82;;
16179;SDS011;8196;49.428;10.906;2023-03-01T07:29:46;20.80;;;15.30;;
16179;SDS011;8196;49.428;10.906;2023-03-01T07:32:13;20.60;;;14.85;;
16179;SDS011;8196;49.428;10.906;2023-03-01T07:34:40;20.45;;;15.27;;
16179;SDS011;8196;49.428;10.906;2023-03-01T07:37:07;19.97;;;14.53;;
16179;SDS011;8196;49.428;10.906;2023-03-01T07:39:35;21.48;;;15.82;;
16179;SDS011;8196;49.428;10.906;2023-03-01T07:42:02;20.27;;;15.75;;
16179;SDS011;8196;49.428;10.906;2023-03-01T07:44:29;24.08;;;16.52;;
16179;SDS011;8196;49.428;10.906;2023-03-01T07:46:56;23.55;;;17.15;;
16179;SDS011;8196;49.428;10.906;2023-03-01T07:49:24;24.35;;;18.23;;
16179;SDS011;8196;49.428;10.906;2023-03-01T07:51:52;21.45;;;15.15;;
16179;SDS011;8196;49.428;10.906;2023-03-01T07:54:19;22.00;;;16.77;;
16179;SDS011;8196;49.428;10.906;2023-03-01T07:56:46;23.60;;;16.33;;
16179;SDS011;8196;49.428;10.906;2023-03-01T07:59:14;22.43;;;16.87;;
16179;SDS011;8196;49.428;10.906;2023-03-01T08:01:41;23.00;;;17.58;;
16179;SDS011;8196;49.428;10.906;2023-03-01T08:04:08;25.42;;;17.27;;
16179;SDS011;8196;49.428;10.906;2023-03-01T08:06:36;22.00;;;16.73;;
16179;SDS011;8196;49.428;10.906;2023-03-01T08:09:03;22.98;;;16.75;;
16179;SDS011;8196;49.428;10.906;2023-03-01T08:11:30;23.45;;;16.90;;
16179;SDS011;8196;49.428;10.906;2023-03-01T08:13:57;20.50;;;16.15;;
16179;SDS011;8196;49.428;10.906;2023-03-01T08:16:25;21.33;;;16.95;;
16179;SDS011;8196;49.428;10.906;2023-03-01T08:18:52;21.95;;;15.45;;
16179;SDS011;8196;49.428;10.906;2023-03-01T08:21:22;20.63;;;18.00;;
16179;SDS011;8196;49.428;10.906;2023-03-01T08:23:49;22.60;;;18.65;;
16179;SDS011;8196;49.428;10.906;2023-03-01T08:26:18;19.38;;;15.25;;
16179;SDS011;8196;49.428;10.906;2023-03-01T08:28:48;19.83;;;15.25;;
16179;SDS011;8196;49.428;10.906;2023-03-01T08:31:17;21.08;;;15.65;;
16179;SDS011;8196;49.428;10.906;2023-03-01T08:33:45;20.33;;;15.95;;
16179;SDS011;8196;49.428;10.906;2023-03-01T08:36:17;22.00;;;17.25;;
16179;SDS011;8196;49.428;10.906;2023-03-01T08:38:45;20.73;;;17.07;;
16179;SDS011;8196;49.428;10.906;2023-03-01T08:41:13;23.57;;;19.77;;
16179;SDS011;8196;49.428;10.906;2023-03-01T08:43:40;20.02;;;16.90;;
16179;SDS011;8196;49.428;10.906;2023-03-01T08:46:07;19.65;;;17.05;;
16179;SDS011;8196;49.428;10.906;2023-03-01T08:48:35;21.13;;;17.60;;
16179;SDS011;8196;49.428;10.906;2023-03-01T08:51:10;18.17;;;15.73;;
16179;SDS011;8196;49.428;10.906;2023-03-01T08:53:39;19.95;;;16.20;;
16179;SDS011;8196;49.428;10.906;2023-03-01T08:56:07;19.13;;;16.70;;
16179;SDS011;8196;49.428;10.906;2023-03-01T08:58:34;20.02;;;16.65;;
16179;SDS011;8196;49.428;10.906;2023-03-01T09:03:29;19.45;;;16.33;;
16179;SDS011;8196;49.428;10.906;2023-03-01T09:05:59;24.40;;;19.20;;
16179;SDS011;8196;49.428;10.906;2023-03-01T09:08:26;17.60;;;15.47;;
16179;SDS011;8196;49.428;10.906;2023-03-01T09:10:53;19.95;;;17.20;;
16179;SDS011;8196;49.428;10.906;2023-03-01T09:13:20;19.73;;;16.15;;
16179;SDS011;8196;49.428;10.906;2023-03-01T09:15:50;18.30;;;15.07;;
16179;SDS011;8196;49.428;10.906;2023-03-01T09:18:17;19.67;;;15.77;;
16179;SDS011;8196;49.428;10.906;2023-03-01T09:20:45;22.23;;;18.08;;
16179;SDS011;8196;49.428;10.906;2023-03-01T09:23:12;25.50;;;18.67;;
16179;SDS011;8196;49.428;10.906;2023-03-01T09:25:39;18.23;;;15.15;;
16179;SDS011;8196;49.428;10.906;2023-03-01T09:28:06;21.08;;;17.15;;
16179;SDS011;8196;49.428;10.906;2023-03-01T09:30:40;24.30;;;18.73;;
16179;SDS011;8196;49.428;10.906;2023-03-01T09:33:07;17.17;;;15.33;;
16179;SDS011;8196;49.428;10.906;2023-03-01T09:35:40;19.65;;;16.02;;
16179;SDS011;8196;49.428;10.906;2023-03-01T09:38:13;21.08;;;17.35;;
16179;SDS011;8196;49.428;10.906;2023-03-01T09:40:43;19.73;;;15.95;;
16179;SDS011;8196;49.428;10.906;2023-03-01T09:43:18;21.40;;;16.67;;
16179;SDS011;8196;49.428;10.906;2023-03-01T09:45:52;18.27;;;15.55;;
16179;SDS011;8196;49.428;10.906;2023-03-01T09:48:23;17.80;;;14.90;;
16179;SDS011;8196;49.428;10.906;2023-03-01T09:50:52;18.80;;;14.90;;
16179;SDS011;8196;49.428;10.906;2023-03-01T09:53:20;19.48;;;15.18;;
16179;SDS011;8196;49.428;10.906;2023-03-01T09:56:05;17.53;;;15.30;;
16179;SDS011;8196;49.428;10.906;2023-03-01T09:58:47;17.55;;;14.73;;
16179;SDS011;8196;49.428;10.906;2023-03-01T10:01:38;16.27;;;14.30;;
16179;SDS011;8196;49.428;10.906;2023-03-01T10:04:12;17.73;;;15.07;;
16179;SDS011;8196;49.428;10.906;2023-03-01T10:06:45;18.30;;;16.20;;
16179;SDS011;8196;49.428;10.906;2023-03-01T10:09:20;16.70;;;13.50;;
16179;SDS011;8196;49.428;10.906;2023-03-01T10:11:49;18.35;;;13.70;;
16179;SDS011;8196;49.428;10.906;2023-03-01T10:17:10;17.85;;;13.07;;
16179;SDS011;8196;49.428;10.906;2023-03-01T10:19:46;18.60;;;13.90;;
16179;SDS011;8196;49.428;10.906;2023-03-01T10:22:21;17.15;;;13.43;;
16179;SDS011;8196;49.428;10.906;2023-03-01T10:24:54;16.67;;;13.18;;
16179;SDS011;8196;49.428;10.906;2023-03-01T10:27:26;17.17;;;14.30;;
16179;SDS011;8196;49.428;10.906;2023-03-01T10:32:37;16.33;;;13.00;;
16179;SDS011;8196;49.428;10.906;2023-03-01T10:35:21;15.95;;;12.50;;
16179;SDS011;8196;49.428;10.906;2023-03-01T10:38:06;15.13;;;12.65;;
16179;SDS011;8196;49.428;10.906;2023-03-01T10:40:36;14.55;;;12.50;;
16179;SDS011;8196;49.428;10.906;2023-03-01T10:43:18;16.13;;;12.90;;
16179;SDS011;8196;49.428;10.906;2023-03-01T10:45:46;15.85;;;13.10;;
16179;SDS011;8196;49.428;10.906;2023-03-01T10:48:15;15.60;;;13.10;;
16179;SDS011;8196;49.428;10.906;2023-03-01T10:50:51;14.63;;;13.03;;
16179;SDS011;8196;49.428;10.906;2023-03-01T10:53:33;16.10;;;12.37;;
16179;SDS011;8196;49.428;10.906;2023-03-01T10:56:05;16.30;;;13.00;;
16179;SDS011;8196;49.428;10.906;2023-03-01T10:58:34;16.33;;;13.20;;
16179;SDS011;8196;49.428;10.906;2023-03-01T11:01:04;16.97;;;13.10;;
16179;SDS011;8196;49.428;10.906;2023-03-01T11:03:36;15.10;;;11.97;;
16179;SDS011;8196;49.428;10.906;2023-03-01T11:06:05;16.58;;;11.95;;
16179;SDS011;8196;49.428;10.906;2023-03-01T11:08:40;16.45;;;13.15;;
16179;SDS011;8196;49.428;10.906;2023-03-01T11:13:47;14.57;;;11.88;;
16179;SDS011;8196;49.428;10.906;2023-03-01T11:16:22;14.27;;;12.20;;
16179;SDS011;8196;49.428;10.906;2023-03-01T11:19:00;16.20;;;12.33;;
16179;SDS011;8196;49.428;10.906;2023-03-01T11:21:53;15.82;;;12.93;;
16179;SDS011;8196;49.428;10.906;2023-03-01T11:24:26;16.08;;;12.77;;
16179;SDS011;8196;49.428;10.906;2023-03-01T11:26:57;14.60;;;11.73;;
16179;SDS011;8196;49.428;10.906;2023-03-01T11:29:30;17.42;;;12.45;;
16179;SDS011;8196;49.428;10.906;2023-03-01T11:32:14;16.58;;;12.43;;
16179;SDS011;8196;49.428;10.906;2023-03-01T11:34:43;15.27;;;12.70;;
16179;SDS011;8196;49.428;10.906;2023-03-01T11:37:21;17.17;;;12.23;;
16179;SDS011;8196;49.428;10.906;2023-03-01T11:40:11;15.20;;;10.90;;
16179;SDS011;8196;49.428;10.906;2023-03-01T11:50:49;15.53;;;12.07;;
16179;SDS011;8196;49.428;10.906;2023-03-01T11:56:19;14.30;;;11.50;;
16179;SDS011;8196;49.428;10.906;2023-03-01T12:01:40;14.40;;;10.95;;
16179;SDS011;8196;49.428;10.906;2023-03-01T12:12:58;13.70;;;11.37;;
16179;SDS011;8196;49.428;10.906;2023-03-01T12:21:30;14.83;;;11.60;;
16179;SDS011;8196;49.428;10.906;2023-03-01T12:24:15;14.68;;;10.65;;
16179;SDS011;8196;49.428;10.906;2023-03-01T12:32:40;13.77;;;11.18;;
16179;SDS011;8196;49.428;10.906;2023-03-01T12:35:23;13.43;;;11.15;;
16179;SDS011;8196;49.428;10.906;2023-03-01T12:41:01;11.93;;;9.95;;
16179;SDS011;8196;49.428;10.906;2023-03-01T12:46:39;11.57;;;10.05;;
16179;SDS011;8196;49.428;10.906;2023-03-01T12:49:12;12.60;;;10.50;;
16179;SDS011;8196;49.428;10.906;2023-03-01T12:51:43;14.02;;;11.07;;
16179;SDS011;8196;49.428;10.906;2023-03-01T12:54:23;11.93;;;10.20;;
16179;SDS011;8196;49.428;10.906;2023-03-01T12:56:54;12.43;;;9.32;;
16179;SDS011;8196;49.428;10.906;2023-03-01T13:02:04;12.47;;;10.63;;
16179;SDS011;8196;49.428;10.906;2023-03-01T13:07:36;15.07;;;10.27;;
16179;SDS011;8196;49.428;10.906;2023-03-01T13:13:01;12.70;;;10.27;;
16179;SDS011;8196;49.428;10.906;2023-03-01T13:15:37;10.85;;;9.10;;
16179;SDS011;8196;49.428;10.906;2023-03-01T13:20:51;10.63;;;9.15;;
16179;SDS011;8196;49.428;10.906;2023-03-01T13:33:46;11.23;;;9.25;;
16179;SDS011;8196;49.428;10.906;2023-03-01T13:38:58;13.27;;;11.07;;
16179;SDS011;8196;49.428;10.906;2023-03-01T13:47:03;12.50;;;10.85;;
16179;SDS011;8196;49.428;10.906;2023-03-01T13:52:22;12.77;;;10.30;;
16179;SDS011;8196;49.428;10.906;2023-03-01T13:54:58;13.80;;;10.82;;
16179;SDS011;8196;49.428;10.906;2023-03-01T13:57:28;12.23;;;10.37;;
16179;SDS011;8196;49.428;10.906;2023-03-01T13:59:59;12.85;;;9.65;;
16179;SDS011;8196;49.428;10.906;2023-03-01T14:02:26;14.63;;;10.23;;
16179;SDS011;8196;49.428;10.906;2023-03-01T14:04:57;13.45;;;10.48;;
16179;SDS011;8196;49.428;10.906;2023-03-01T14:07:25;12.40;;;9.80;;
16179;SDS011;8196;49.428;10.906;2023-03-01T14:09:58;13.05;;;10.00;;
16179;SDS011;8196;49.428;10.906;2023-03-01T14:12:35;12.25;;;10.35;;
16179;SDS011;8196;49.428;10.906;2023-03-01T14:15:19;13.48;;;10.10;;
16179;SDS011;8196;49.428;10.906;2023-03-01T14:20:39;12.68;;;9.50;;
16179;SDS011;8196;49.428;10.906;2023-03-01T14:23:10;12.27;;;9.80;;
16179;SDS011;8196;49.428;10.906;2023-03-01T14:25:45;11.90;;;9.48;;
16179;SDS011;8196;49.428;10.906;2023-03-01T14:28:18;11.80;;;9.60;;
16179;SDS011;8196;49.428;10.906;2023-03-01T14:30:49;11.57;;;9.40;;
16179;SDS011;8196;49.428;10.906;2023-03-01T14:33:19;13.32;;;9.32;;
16179;SDS011;8196;49.428;10.906;2023-03-01T14:35:53;11.60;;;9.47;;
16179;SDS011;8196;49.428;10.906;2023-03-01T14:38:22;12.52;;;9.45;;
16179;SDS011;8196;49.428;10.906;2023-03-01T14:40:55;12.27;;;9.07;;
16179;SDS011;8196;49.428;10.906;2023-03-01T14:43:25;10.82;;;9.07;;
16179;SDS011;8196;49.428;10.906;2023-03-01T14:45:52;11.70;;;9.23;;
16179;SDS011;8196;49.428;10.906;2023-03-01T14:48:21;10.40;;;8.88;;
16179;SDS011;8196;49.428;10.906;2023-03-01T14:50:48;12.32;;;9.18;;
16179;SDS011;8196;49.428;10.906;2023-03-01T14:53:17;12.45;;;9.52;;
16179;SDS011;8196;49.428;10.906;2023-03-01T14:55:48;12.35;;;9.25;;
16179;SDS011;8196;49.428;10.906;2023-03-01T14:58:20;11.73;;;9.43;;
16179;SDS011;8196;49.428;10.906;2023-03-01T15:00:50;11.57;;;9.13;;
16179;SDS011;8196;49.428;10.906;2023-03-01T15:03:21;11.43;;;10.10;;
16179;SDS011;8196;49.428;10.906;2023-03-01T15:06:00;12.52;;;10.23;;
16179;SDS011;8196;49.428;10.906;2023-03-01T15:08:28;12.57;;;9.82;;
16179;SDS011;8196;49.428;10.906;2023-03-01T15:11:04;11.00;;;9.38;;
16179;SDS011;8196;49.428;10.906;2023-03-01T15:13:44;11.68;;;9.45;;
16179;SDS011;8196;49.428;10.906;2023-03-01T15:16:13;12.90;;;10.00;;
16179;SDS011;8196;49.428;10.906;2023-03-01T15:18:43;13.52;;;10.35;;
16179;SDS011;8196;49.428;10.906;2023-03-01T15:21:16;14.30;;;9.98;;
16179;SDS011;8196;49.428;10.906;2023-03-01T15:23:48;11.60;;;9.65;;
16179;SDS011;8196;49.428;10.906;2023-03-01T15:26:36;11.75;;;9.65;;
16179;SDS011;8196;49.428;10.906;2023-03-01T15:29:10;13.47;;;9.07;;
16179;SDS011;8196;49.428;10.906;2023-03-01T15:31:53;12.95;;;9.68;;
16179;SDS011;8196;49.428;10.906;2023-03-01T15:34:21;11.65;;;9.38;;
16179;SDS011;8196;49.428;10.906;2023-03-01T15:36:51;11.63;;;9.65;;
16179;SDS011;8196;49.428;10.906;2023-03-01T15:44:38;10.48;;;9.02;;
16179;SDS011;8196;49.428;10.906;2023-03-01T15:49:53;10.13;;;8.80;;
16179;SDS011;8196;49.428;10.906;2023-03-01T15:54:56;11.27;;;8.60;;
16179;SDS011;8196;49.428;10.906;2023-03-01T15:57:24;10.57;;;8.63;;
16179;SDS011;8196;49.428;10.906;2023-03-01T15:59:51;10.65;;;8.82;;
16179;SDS011;8196;49.428;10.906;2023-03-01T16:02:18;11.57;;;8.60;;
16179;SDS011;8196;49.428;10.906;2023-03-01T16:04:47;11.60;;;9.10;;
16179;SDS011;8196;49.428;10.906;2023-03-01T16:07:15;10.43;;;8.82;;
16179;SDS011;8196;49.428;10.906;2023-03-01T16:09:42;11.82;;;9.52;;
16179;SDS011;8196;49.428;10.906;2023-03-01T16:12:12;11.00;;;8.95;;
16179;SDS011;8196;49.428;10.906;2023-03-01T16:14:40;11.23;;;8.98;;
16179;SDS011;8196;49.428;10.906;2023-03-01T16:17:07;13.90;;;9.85;;
16179;SDS011;8196;49.428;10.906;2023-03-01T16:19:37;12.10;;;9.77;;
16179;SDS011;8196;49.428;10.906;2023-03-01T16:22:04;13.70;;;11.77;;
16179;SDS011;8196;49.428;10.906;2023-03-01T16:24:32;12.68;;;9.43;;
16179;SDS011;8196;49.428;10.906;2023-03-01T16:26:59;13.30;;;10.13;;